Time;durP1;ratioP1;P1;durP2;ratioP2;P2;SDS_P1;SDS_P2;PMS_P1;PMS_P2;Temp;Humidity;BMP_temperature;BMP_pressure;BME280_temperature;BME280_humidity;BME280_pressure;Samples;Min_cycle;Max_cycle;Signal;HPM_P1;HPM_P2
2021/04/09 00:01:42;;;;;;;4.05;1.67;;;;;;;1.17;44.40;94731.84;5091243;28;20027;-68
2021/04/09 00:04:08;;;;;;;6.70;1.90;;;;;;;1.29;44.20;94744.16;5091312;28;20471;-68
2021/04/09 00:06:33;;;;;;;4.63;1.98;;;;;;;1.26;44.36;94744.59;5072756;28;20056;-69
2021/04/09 00:09:00;;;;;;;2.92;1.25;;;;;;;1.19;43.86;94747.38;5091272;28;20057;-68
2021/04/09 00:11:25;;;;;;;4.28;1.80;;;;;;;1.21;44.11;94755.81;5072427;28;20020;-68
2021/04/09 00:13:51;;;;;;;7.57;1.98;;;;;;;1.18;44.25;94749.19;5090715;28;20078;-68
2021/04/09 00:16:16;;;;;;;5.38;1.67;;;;;;;1.21;44.22;94747.94;5106232;28;20080;-68
2021/04/09 00:18:42;;;;;;;4.57;1.80;;;;;;;1.23;44.40;94745.88;5069975;28;20020;-68
2021/04/09 00:21:07;;;;;;;4.35;1.77;;;;;;;1.16;44.19;94758.31;5090552;28;20074;-68
2021/04/09 00:23:33;;;;;;;3.70;1.60;;;;;;;1.18;43.91;94746.56;5090692;28;20081;-68
2021/04/09 00:25:59;;;;;;;10.10;1.77;;;;;;;1.24;44.42;94744.81;5090746;28;20035;-68
2021/04/09 00:28:25;;;;;;;4.13;1.73;;;;;;;1.10;44.34;94741.69;5090286;28;20031;-68
2021/04/09 00:30:50;;;;;;;6.65;2.10;;;;;;;1.17;44.32;94741.56;5090671;28;20028;-68
2021/04/09 00:33:15;;;;;;;3.10;1.58;;;;;;;1.14;43.96;94739.38;5072159;28;20029;-69
2021/04/09 00:35:43;;;;;;;4.40;2.03;;;;;;;1.20;44.10;94736.63;5090350;28;20036;-67
2021/04/09 00:38:09;;;;;;;3.90;1.73;;;;;;;1.08;44.32;94732.44;5090429;28;20119;-68
2021/04/09 00:40:35;;;;;;;3.60;1.70;;;;;;;1.08;43.99;94728.00;5071854;28;20044;-68
2021/04/09 00:43:00;;;;;;;4.85;1.85;;;;;;;1.05;44.60;94725.03;5090368;28;20529;-68
2021/04/09 00:45:26;;;;;;;4.80;1.67;;;;;;;1.09;44.26;94723.53;5090118;28;20437;-68
2021/04/09 00:47:51;;;;;;;3.65;1.60;;;;;;;1.09;44.21;94728.78;5090307;28;20065;-68
2021/04/09 00:50:17;;;;;;;2.75;1.70;;;;;;;1.07;44.54;94723.75;5090048;28;20016;-68
2021/04/09 00:52:43;;;;;;;4.97;1.65;;;;;;;1.06;44.06;94727.44;5105784;28;20082;-68
2021/04/09 00:55:10;;;;;;;4.05;1.70;;;;;;;1.14;43.71;94731.50;5064683;28;20059;-68
2021/04/09 00:57:36;;;;;;;4.80;2.35;;;;;;;1.13;43.55;94740.41;5089849;28;20082;-68
2021/04/09 01:00:08;;;;;;;7.30;2.95;;;;;;;1.12;43.53;94731.75;5090428;28;20039;-68
2021/04/09 01:02:34;;;;;;;;;;;;;;;1.06;44.10;94729.22;5090430;28;20052;-68
2021/04/09 01:04:59;;;;;;;3.30;1.95;;;;;;;1.04;44.08;94731.28;5105689;28;19963;-68
2021/04/09 01:07:26;;;;;;;3.80;1.90;;;;;;;1.04;44.13;94736.53;5089931;28;20028;-69
2021/04/09 01:09:53;;;;;;;4.07;2.10;;;;;;;1.06;44.18;94729.22;5089811;28;20024;-69
2021/04/09 01:12:19;;;;;;;4.30;1.70;;;;;;;1.03;44.03;94742.84;5089796;28;20176;-68
2021/04/09 01:14:45;;;;;;;5.45;2.03;;;;;;;1.04;44.07;94734.75;5071346;28;20028;-68
2021/04/09 01:17:37;;;;;;;4.15;1.92;;;;;;;1.10;44.28;94731.19;5089982;28;20123;-68
2021/04/09 01:20:24;;;;;;;4.82;2.13;;;;;;;1.05;44.17;94740.78;5071886;28;20023;-68
2021/04/09 01:22:53;;;;;;;3.92;2.20;;;;;;;1.05;44.21;94748.66;5089664;28;20057;-69
2021/04/09 01:25:27;;;;;;;4.82;2.15;;;;;;;1.05;44.30;94746.03;5071687;28;20028;-69
2021/04/09 01:28:10;;;;;;;4.30;2.20;;;;;;;1.04;44.48;94747.88;5089748;28;20031;-68
2021/04/09 01:30:52;;;;;;;6.18;1.88;;;;;;;0.97;44.11;94732.22;5064784;28;20399;-68
2021/04/09 01:33:19;;;;;;;4.53;2.22;;;;;;;1.04;44.00;94739.16;5065161;28;20522;-68
2021/04/09 01:35:48;;;;;;;3.25;1.70;;;;;;;1.00;43.88;94737.03;5089538;28;20024;-68
2021/04/09 01:38:18;;;;;;;3.08;1.98;;;;;;;1.05;43.70;94746.03;5068841;28;20024;-69
2021/04/09 01:40:46;;;;;;;4.85;2.30;;;;;;;0.98;43.69;94748.78;5071054;28;20068;-68
2021/04/09 01:43:16;;;;;;;5.25;1.75;;;;;;;1.02;43.73;94742.03;5089580;28;21365;-68
2021/04/09 01:45:42;;;;;;;3.95;2.40;;;;;;;1.08;43.78;94745.56;5089287;28;20031;-68
2021/04/09 01:48:10;;;;;;;7.70;1.95;;;;;;;1.09;43.64;94731.41;5089686;28;20012;-68
2021/04/09 01:50:37;;;;;;;6.88;2.33;;;;;;;1.08;43.36;94732.44;5089684;28;20443;-68
2021/04/09 01:53:05;;;;;;;4.75;1.95;;;;;;;1.06;43.15;94726.59;5071276;28;20031;-69
2021/04/09 01:55:35;;;;;;;3.75;1.80;;;;;;;1.03;43.42;94737.59;5071259;28;20059;-68
2021/04/09 01:58:02;;;;;;;4.95;2.13;;;;;;;1.05;43.46;94730.28;5070895;28;20016;-69
2021/04/09 02:00:30;;;;;;;4.30;2.05;;;;;;;1.04;43.34;94734.75;5071553;28;20043;-69
2021/04/09 02:02:58;;;;;;;8.90;2.55;;;;;;;0.99;43.22;94743.28;5089222;28;20479;-68
2021/04/09 02:05:27;;;;;;;5.95;2.53;;;;;;;0.98;43.27;94744.34;5071268;28;20035;-68
2021/04/09 02:07:56;;;;;;;3.97;2.03;;;;;;;0.96;43.22;94746.38;5057155;28;20032;-69
2021/04/09 02:10:22;;;;;;;5.30;1.80;;;;;;;0.87;43.72;94739.88;5074893;28;20032;-69
2021/04/09 02:12:49;;;;;;;4.28;2.17;;;;;;;0.87;43.59;94745.13;5093033;28;20036;-68
2021/04/09 02:15:18;;;;;;;5.07;2.63;;;;;;;0.86;43.70;94751.44;5074809;28;20024;-68
2021/04/09 02:17:44;;;;;;;4.47;2.22;;;;;;;0.86;43.58;94742.75;5093035;28;20032;-68
2021/04/09 02:20:15;;;;;;;4.05;2.00;;;;;;;0.86;44.34;94742.75;5092996;28;20395;-68
2021/04/09 02:22:42;;;;;;;5.32;2.45;;;;;;;0.84;44.74;94747.44;5074678;28;20451;-68
2021/04/09 02:25:09;;;;;;;4.55;2.50;;;;;;;0.92;45.19;94749.72;5074374;28;20096;-68
2021/04/09 02:27:35;;;;;;;5.95;2.38;;;;;;;0.97;45.23;94762.94;5093025;28;20034;-68
2021/04/09 02:30:03;;;;;;;6.10;2.50;;;;;;;1.00;45.31;94755.41;5092633;28;20448;-68
2021/04/09 02:32:28;;;;;;;5.35;2.47;;;;;;;1.10;45.62;94767.13;5092938;28;20024;-68
2021/04/09 02:34:54;;;;;;;4.18;2.35;;;;;;;1.13;45.51;94764.84;5061838;28;20032;-68
2021/04/09 02:37:21;;;;;;;5.40;2.58;;;;;;;1.11;45.81;94761.66;5092788;28;20032;-68
2021/04/09 02:39:52;;;;;;;5.50;2.45;;;;;;;1.17;45.68;94758.09;5092476;28;20111;-69
2021/04/09 02:42:18;;;;;;;4.17;2.70;;;;;;;1.23;45.96;94760.84;5074346;28;20028;-69
2021/04/09 02:44:43;;;;;;;8.10;2.60;;;;;;;1.17;46.17;94763.34;5092657;28;20410;-68
2021/04/09 02:47:17;;;;;;;6.97;2.70;;;;;;;1.26;46.20;94760.34;5074367;28;20461;-70
2021/04/09 02:49:58;;;;;;;5.78;2.72;;;;;;;1.24;46.19;94765.03;5092938;28;20035;-69
2021/04/09 02:52:30;;;;;;;4.97;2.57;;;;;;;1.19;46.53;94771.00;5074235;28;20466;-69
2021/04/09 02:54:58;;;;;;;5.30;2.88;;;;;;;1.22;46.55;94754.75;5074153;28;20024;-68
2021/04/09 02:57:26;;;;;;;5.40;2.70;;;;;;;1.23;47.15;94761.63;5074080;28;20020;-69
2021/04/09 02:59:54;;;;;;;8.68;3.30;;;;;;;1.17;46.82;94760.72;5074256;28;20555;-68
2021/04/09 03:02:20;;;;;;;6.15;3.10;;;;;;;1.10;47.25;94757.44;5073810;28;20475;-68
2021/04/09 03:04:47;;;;;;;6.95;3.22;;;;;;;1.09;47.43;94763.72;5073990;28;20043;-68
2021/04/09 03:07:13;;;;;;;4.60;2.83;;;;;;;1.09;47.87;94758.47;5091896;28;20394;-68
2021/04/09 03:09:39;;;;;;;6.35;3.33;;;;;;;1.03;47.60;94764.63;5073961;28;20451;-69
2021/04/09 03:12:31;;;;;;;6.32;3.03;;;;;;;1.02;47.54;94756.97;5092029;28;20142;-69
2021/04/09 03:14:57;;;;;;;7.07;3.20;;;;;;;0.97;47.92;94768.97;5103895;28;20036;-68
2021/04/09 03:17:32;;;;;;;5.88;3.10;;;;;;;0.95;47.91;94760.53;5091194;28;20067;-69
2021/04/09 03:19:58;;;;;;;10.05;3.13;;;;;;;0.95;47.66;94767.63;5091941;28;20081;-68
2021/04/09 03:22:23;;;;;;;7.30;2.95;;;;;;;0.97;47.46;94766.34;5073725;28;20031;-69
2021/04/09 03:24:49;;;;;;;9.82;3.35;;;;;;;0.90;48.06;94764.91;5053851;28;20033;-69
2021/04/09 03:27:15;;;;;;;4.97;2.63;;;;;;;0.91;48.33;94769.88;5089689;28;20056;-69
2021/04/09 03:29:41;;;;;;;5.00;3.13;;;;;;;0.91;48.10;94779.59;5091869;28;20020;-68
2021/04/09 03:32:07;;;;;;;8.75;3.33;;;;;;;0.89;48.37;94771.94;5059684;28;20424;-68
2021/04/09 03:34:32;;;;;;;6.85;3.28;;;;;;;0.89;48.27;94782.44;5073418;28;20028;-68
2021/04/09 03:36:58;;;;;;;6.63;2.85;;;;;;;0.88;48.40;94767.75;5073500;28;20468;-69
2021/04/09 03:39:23;;;;;;;4.50;2.78;;;;;;;0.84;48.46;94784.97;5067597;28;20078;-68
2021/04/09 03:41:49;;;;;;;6.22;2.60;;;;;;;0.78;48.07;94783.28;5103930;28;20163;-69
2021/04/09 03:44:14;;;;;;;4.63;2.85;;;;;;;0.76;48.31;94794.00;5071261;28;20407;-68
2021/04/09 03:46:39;;;;;;;4.43;2.75;;;;;;;0.83;48.20;94788.63;5069815;28;20434;-68
2021/04/09 03:49:05;;;;;;;6.35;2.97;;;;;;;0.86;48.49;94795.25;5070020;28;20020;-68
2021/04/09 03:51:31;;;;;;;5.53;3.03;;;;;;;0.84;48.70;94795.47;5071005;28;20436;-68
2021/04/09 03:53:58;;;;;;;7.82;3.05;;;;;;;0.86;48.37;94803.91;5071131;28;20032;-68
2021/04/09 03:56:23;;;;;;;8.82;2.53;;;;;;;0.87;48.45;94805.50;5069517;28;20024;-68
2021/04/09 03:58:50;;;;;;;4.82;2.60;;;;;;;0.86;48.51;94806.53;5069530;28;20054;-68
2021/04/09 04:01:16;;;;;;;5.93;2.58;;;;;;;0.97;48.50;94810.97;5069814;28;20025;-68
2021/04/09 04:03:41;;;;;;;5.18;2.78;;;;;;;0.94;48.40;94816.69;5103425;28;20029;-68
2021/04/09 04:06:06;;;;;;;6.43;2.45;;;;;;;1.00;48.54;94815.78;5071230;28;20058;-69
2021/04/09 04:08:32;;;;;;;5.25;2.90;;;;;;;1.02;48.61;94820.00;5070476;28;20024;-69
2021/04/09 04:10:57;;;;;;;7.72;3.10;;;;;;;1.04;48.70;94820.56;5069541;28;20025;-69
2021/04/09 04:13:23;;;;;;;8.30;3.00;;;;;;;1.04;48.36;94815.31;5070490;28;20047;-69
2021/04/09 04:15:48;;;;;;;7.07;3.15;;;;;;;1.06;48.62;94823.75;5069171;28;20033;-69
2021/04/09 04:18:14;;;;;;;5.78;2.40;;;;;;;1.09;48.58;94824.09;5069674;28;20043;-69
2021/04/09 04:20:39;;;;;;;8.05;3.17;;;;;;;1.08;48.99;94833.03;5070372;28;20020;-69
2021/04/09 04:23:05;;;;;;;14.77;3.10;;;;;;;1.10;48.90;94830.97;5070760;28;20107;-69
2021/04/09 04:25:30;;;;;;;5.97;2.90;;;;;;;1.16;49.24;94834.47;5070332;28;20034;-70
2021/04/09 04:27:56;;;;;;;7.80;2.80;;;;;;;1.22;49.08;94838.00;5069002;28;20032;-69
2021/04/09 04:30:21;;;;;;;4.25;2.42;;;;;;;1.20;49.07;94835.63;5069840;28;20024;-69
2021/04/09 04:32:47;;;;;;;8.65;3.65;;;;;;;1.19;49.29;94834.81;5055251;28;20040;-69
2021/04/09 04:35:13;;;;;;;5.60;2.85;;;;;;;1.23;49.18;94844.88;5070270;28;20032;-69
2021/04/09 04:37:38;;;;;;;6.70;3.20;;;;;;;1.17;49.77;94851.84;5068690;28;20770;-68
2021/04/09 04:40:04;;;;;;;6.40;3.20;;;;;;;1.19;50.32;94840.06;5050805;28;20057;-68
2021/04/09 04:42:29;;;;;;;5.70;3.28;;;;;;;1.21;50.18;94852.97;5070211;28;20111;-69
2021/04/09 04:44:55;;;;;;;6.90;2.88;;;;;;;1.21;50.23;94852.97;5067153;28;20099;-68
2021/04/09 04:47:20;;;;;;;6.28;3.20;;;;;;;1.24;49.81;94863.00;5070279;28;20047;-69
2021/04/09 04:49:46;;;;;;;9.95;4.00;;;;;;;1.22;50.42;94856.41;5070126;28;20072;-69
2021/04/09 04:52:11;;;;;;;8.93;3.10;;;;;;;1.24;50.03;94856.97;5068764;28;20024;-69
2021/04/09 04:54:36;;;;;;;6.57;3.05;;;;;;;1.23;50.33;94868.53;5061719;28;20048;-69
2021/04/09 04:57:04;;;;;;;8.00;3.28;;;;;;;1.27;50.24;94870.44;5070299;28;20021;-69
2021/04/09 04:59:30;;;;;;;6.82;3.22;;;;;;;1.31;49.69;94874.22;5069731;28;20407;-68
2021/04/09 05:01:55;;;;;;;7.28;3.53;;;;;;;1.29;50.07;94876.28;5068306;28;20032;-68
2021/04/09 05:04:21;;;;;;;5.40;3.00;;;;;;;1.32;49.73;94870.56;5068908;28;20103;-68
2021/04/09 05:06:46;;;;;;;8.40;3.17;;;;;;;1.33;49.80;94874.78;5068293;28;20020;-70
2021/04/09 05:09:12;;;;;;;6.72;3.28;;;;;;;1.46;50.22;94883.44;5068501;28;20028;-69
2021/04/09 05:11:37;;;;;;;6.60;3.33;;;;;;;1.45;49.05;94889.75;5068430;28;20494;-70
2021/04/09 05:14:03;;;;;;;6.43;3.22;;;;;;;1.55;49.78;94895.22;5068078;28;20116;-70
2021/04/09 05:16:28;;;;;;;7.88;3.45;;;;;;;1.60;49.35;94893.47;5068380;28;20119;-70
2021/04/09 05:18:53;;;;;;;9.52;3.85;;;;;;;1.67;49.31;94890.75;5069483;28;20028;-69
2021/04/09 05:21:19;;;;;;;12.63;4.30;;;;;;;1.74;49.71;94894.03;5069867;28;20083;-69
2021/04/09 05:23:44;;;;;;;8.32;3.28;;;;;;;1.77;49.38;94901.47;5068028;28;20058;-70
2021/04/09 05:26:09;;;;;;;5.68;3.45;;;;;;;1.81;49.07;94901.78;5066859;28;20473;-69
2021/04/09 05:28:35;;;;;;;10.35;4.07;;;;;;;1.81;49.88;94901.78;5068148;28;20098;-69
2021/04/09 05:31:00;;;;;;;6.97;2.70;;;;;;;1.65;50.21;94898.06;5068099;28;20039;-70
2021/04/09 05:33:26;;;;;;;10.07;3.35;;;;;;;1.83;49.83;94912.06;5068478;28;20029;-69
2021/04/09 05:35:52;;;;;;;10.82;3.13;;;;;;;1.84;50.19;94913.66;5069483;28;20033;-69
2021/04/09 05:38:17;;;;;;;8.32;3.95;;;;;;;1.84;49.57;94918.94;5058257;28;20032;-69
2021/04/09 05:40:43;;;;;;;7.53;3.97;;;;;;;1.89;49.67;94911.13;5067749;28;20055;-69
2021/04/09 05:43:08;;;;;;;7.80;3.30;;;;;;;1.92;50.00;94922.00;5072365;28;20091;-69
2021/04/09 05:45:33;;;;;;;6.32;3.10;;;;;;;1.89;50.81;94921.66;5072325;28;20020;-70
2021/04/09 05:48:06;;;;;;;8.55;3.50;;;;;;;1.91;49.95;94925.63;5059376;28;20028;-70
2021/04/09 05:50:33;;;;;;;13.40;5.22;;;;;;;1.96;50.26;94933.63;5073374;28;20127;-70
2021/04/09 05:52:59;;;;;;;19.35;4.25;;;;;;;2.03;50.41;94937.97;5073068;28;20033;-69
2021/04/09 05:55:25;;;;;;;9.48;3.20;;;;;;;2.04;49.77;94937.75;5073382;28;20031;-72
2021/04/09 05:57:50;;;;;;;7.72;3.17;;;;;;;1.88;50.36;94931.38;5071804;28;20025;-71
2021/04/09 06:00:16;;;;;;;7.78;2.97;;;;;;;1.83;49.76;94938.34;5073080;28;20086;-72
2021/04/09 06:02:42;;;;;;;6.63;3.00;;;;;;;1.73;50.21;94926.59;5071972;28;20031;-72
2021/04/09 06:05:08;;;;;;;8.73;3.35;;;;;;;1.80;50.88;94940.41;5073061;28;20127;-72
2021/04/09 06:07:33;;;;;;;7.53;3.28;;;;;;;1.88;50.77;94941.09;5073128;28;20093;-71
2021/04/09 06:09:59;;;;;;;4.85;2.65;;;;;;;1.89;50.74;94953.19;5073019;28;20024;-72
2021/04/09 06:12:25;;;;;;;9.43;3.15;;;;;;;1.96;51.08;94932.84;5071612;28;20107;-73
2021/04/09 06:14:52;;;;;;;7.15;3.30;;;;;;;2.09;50.10;94937.81;5071634;28;20050;-72
2021/04/09 06:17:18;;;;;;;13.05;3.47;;;;;;;2.13;49.77;94940.81;5072987;28;20496;-74
2021/04/09 06:19:43;;;;;;;14.95;3.75;;;;;;;2.12;49.75;94937.38;5073007;28;20032;-70
2021/04/09 06:22:09;;;;;;;9.88;4.07;;;;;;;2.18;49.88;94946.97;5072596;28;20531;-69
2021/04/09 06:24:36;;;;;;;11.88;3.75;;;;;;;2.08;49.47;94946.75;5072831;28;20025;-71
2021/04/09 06:27:02;;;;;;;6.95;3.30;;;;;;;2.03;50.16;94938.75;5055828;28;20128;-70
2021/04/09 06:29:28;;;;;;;13.38;3.80;;;;;;;2.11;49.49;94941.03;5072595;28;20115;-68
2021/04/09 06:31:53;;;;;;;8.00;3.10;;;;;;;2.14;49.10;94945.84;5071063;28;20108;-69
2021/04/09 06:34:19;;;;;;;7.30;3.40;;;;;;;2.04;48.68;94942.22;5070761;28;20040;-68
2021/04/09 06:36:44;;;;;;;6.47;3.53;;;;;;;2.13;49.94;94956.56;5072419;28;20547;-69
2021/04/09 06:39:10;;;;;;;7.22;2.83;;;;;;;2.19;49.93;94958.28;5072311;28;20012;-69
2021/04/09 06:41:35;;;;;;;6.63;3.22;;;;;;;2.32;49.76;94957.19;5070553;28;20427;-68
2021/04/09 06:44:00;;;;;;;4.38;2.65;;;;;;;2.30;49.09;94964.53;5072143;28;20044;-69
2021/04/09 06:46:26;;;;;;;7.45;3.13;;;;;;;2.36;49.29;94963.59;5072128;28;20036;-68
2021/04/09 06:48:51;;;;;;;7.55;4.10;;;;;;;2.40;49.04;94970.81;5059649;28;20043;-69
2021/04/09 06:51:18;;;;;;;11.73;3.38;;;;;;;2.41;48.27;94961.06;5071958;28;20078;-69
2021/04/09 06:53:48;;;;;;;8.60;3.83;;;;;;;2.32;49.23;94967.72;5070245;28;20107;-70
2021/04/09 06:56:15;;;;;;;11.85;3.75;;;;;;;2.45;48.06;94967.47;5070556;28;20073;-70
2021/04/09 06:58:45;;;;;;;9.52;3.78;;;;;;;2.38;48.10;94978.13;5055643;28;20432;-68
2021/04/09 07:01:10;;;;;;;5.63;3.15;;;;;;;2.46;47.89;94963.00;5072080;28;20072;-69
2021/04/09 07:03:37;;;;;;;7.97;3.08;;;;;;;2.57;48.63;94970.84;5071801;28;20020;-69
2021/04/09 07:06:03;;;;;;;5.15;3.15;;;;;;;2.64;46.96;94972.53;5072109;28;20012;-71
2021/04/09 07:08:29;;;;;;;7.70;2.90;;;;;;;2.67;47.58;94961.56;5053836;28;20031;-71
2021/04/09 07:10:55;;;;;;;7.22;3.50;;;;;;;2.61;46.72;94964.06;5070485;28;20025;-70
2021/04/09 07:13:21;;;;;;;9.45;3.33;;;;;;;2.67;46.72;94966.81;5070575;28;20039;-70
2021/04/09 07:15:46;;;;;;;7.53;3.42;;;;;;;2.79;47.46;94968.34;5070331;28;20028;-68
2021/04/09 07:18:15;;;;;;;6.75;3.30;;;;;;;2.91;45.94;94975.38;5071745;28;20020;-69
2021/04/09 07:20:40;;;;;;;6.97;3.47;;;;;;;2.98;45.28;94971.56;5071663;28;20036;-68
2021/04/09 07:23:08;;;;;;;5.60;3.33;;;;;;;2.95;45.15;94971.22;5064294;28;20384;-69
2021/04/09 07:25:37;;;;;;;8.07;3.10;;;;;;;2.98;45.28;94974.19;5070916;28;20020;-69
2021/04/09 07:28:19;;;;;;;4.65;2.67;;;;;;;3.07;43.68;94973.81;5070248;28;20047;-70
2021/04/09 07:30:56;;;;;;;6.30;3.35;;;;;;;3.12;43.99;94969.44;5070150;28;20036;-69
2021/04/09 07:33:26;;;;;;;8.13;3.08;;;;;;;3.22;44.93;94977.50;5071619;28;20028;-68
2021/04/09 07:36:00;;;;;;;5.00;2.80;;;;;;;3.37;42.30;94984.84;5070094;28;20081;-69
2021/04/09 07:38:34;;;;;;;8.75;2.30;;;;;;;3.43;41.66;94983.06;5070107;28;20029;-69
2021/04/09 07:41:02;;;;;;;5.35;2.30;;;;;;;3.44;41.94;94982.06;5083407;28;20044;-69
2021/04/09 07:43:29;;;;;;;12.52;2.55;;;;;;;3.72;41.17;94988.25;5066621;28;20514;-68
2021/04/09 07:45:57;;;;;;;9.75;2.15;;;;;;;3.89;38.41;94980.28;5063356;28;20392;-68
2021/04/09 07:48:42;;;;;;;6.13;1.85;;;;;;;4.01;35.87;94978.38;5073023;28;20024;-68
2021/04/09 07:51:08;;;;;;;3.92;2.33;;;;;;;3.97;36.71;94987.81;5090736;28;20044;-69
2021/04/09 07:53:33;;;;;;;10.00;2.10;;;;;;;3.85;37.31;94984.47;5091392;28;20393;-69
2021/04/09 07:56:06;;;;;;;11.48;2.35;;;;;;;3.95;38.57;94984.63;5091114;28;20035;-70
2021/04/09 07:58:33;;;;;;;7.93;2.50;;;;;;;4.10;38.52;94984.03;5073041;28;20039;-71
2021/04/09 08:00:59;;;;;;;10.52;2.50;;;;;;;4.25;36.96;94978.91;5072955;28;20024;-70
2021/04/09 08:03:42;;;;;;;9.85;3.13;;;;;;;4.40;38.61;94965.91;5090974;28;20019;-70
2021/04/09 08:06:13;;;;;;;12.13;2.50;;;;;;;4.48;36.63;94985.81;5090550;28;20023;-72
2021/04/09 08:09:00;;;;;;;9.43;2.08;;;;;;;4.49;36.47;94982.09;5091012;28;20031;-70
2021/04/09 08:11:33;;;;;;;3.92;2.13;;;;;;;4.17;36.88;94977.53;5090474;28;20476;-69
2021/04/09 08:14:03;;;;;;;4.72;2.00;;;;;;;4.25;36.65;94984.19;5090919;28;20039;-69
2021/04/09 08:16:32;;;;;;;5.53;2.25;;;;;;;4.30;37.67;94984.28;5064431;28;20035;-69
2021/04/09 08:19:10;;;;;;;4.78;1.92;;;;;;;4.40;34.87;94989.66;5072479;28;20090;-70
2021/04/09 08:21:51;;;;;;;3.95;2.00;;;;;;;4.55;34.52;94982.97;5090489;28;20031;-69
2021/04/09 08:24:21;;;;;;;8.38;2.40;;;;;;;4.73;35.08;94989.78;5072605;28;20027;-68
2021/04/09 08:26:49;;;;;;;5.15;2.13;;;;;;;4.69;32.88;94983.38;5090568;28;20032;-68
2021/04/09 08:29:15;;;;;;;8.77;2.00;;;;;;;4.69;34.34;94983.38;5090640;28;20028;-70
2021/04/09 08:31:42;;;;;;;6.00;2.47;;;;;;;4.54;33.45;94987.47;5090910;28;20038;-71
2021/04/09 08:34:10;;;;;;;10.85;2.17;;;;;;;4.51;34.70;94977.38;5090051;28;20038;-71
2021/04/09 08:36:40;;;;;;;13.40;1.90;;;;;;;4.55;32.04;94983.75;5072523;28;20024;-71
2021/04/09 08:39:10;;;;;;;6.65;2.88;;;;;;;4.51;32.02;94987.16;5071763;28;20020;-69
2021/04/09 08:41:42;;;;;;;11.60;1.92;;;;;;;4.56;33.40;94974.00;5106028;28;20090;-69
2021/04/09 08:44:10;;;;;;;4.43;1.90;;;;;;;4.60;32.71;94985.69;5066390;28;20054;-71
2021/04/09 08:46:36;;;;;;;4.82;1.80;;;;;;;4.66;33.54;94989.97;5071983;28;20096;-68
2021/04/09 08:49:04;;;;;;;8.13;2.15;;;;;;;4.81;32.78;94997.25;5090014;28;20032;-71
2021/04/09 08:51:30;;;;;;;9.27;2.22;;;;;;;4.88;32.26;94997.03;5063665;28;20028;-69
2021/04/09 08:54:15;;;;;;;7.03;1.92;;;;;;;4.92;33.83;94991.00;5063467;28;20032;-72
2021/04/09 08:56:41;;;;;;;3.58;2.05;;;;;;;4.96;34.41;94993.97;5054936;28;20027;-71
2021/04/09 08:59:07;;;;;;;2.95;1.65;;;;;;;4.94;33.71;94994.19;5054624;28;20032;-70
2021/04/09 09:01:32;;;;;;;8.55;2.38;;;;;;;4.94;33.50;94981.00;5090176;28;20085;-71
2021/04/09 09:04:23;;;;;;;3.47;1.92;;;;;;;4.97;33.20;94990.28;5089802;28;20125;-71
2021/04/09 09:06:49;;;;;;;3.47;1.63;;;;;;;4.99;32.18;94996.13;5090149;28;20112;-71
2021/04/09 09:09:37;;;;;;;4.15;1.55;;;;;;;4.80;32.34;94993.00;5054940;28;20028;-71
2021/04/09 09:12:04;;;;;;;5.43;1.90;;;;;;;4.82;32.43;94993.56;5071635;28;20560;-72
2021/04/09 09:14:35;;;;;;;6.53;2.50;;;;;;;4.90;33.65;94985.19;5071548;28;20081;-71
2021/04/09 09:17:19;;;;;;;4.88;1.90;;;;;;;5.03;32.98;94990.06;5064388;28;20483;-72
2021/04/09 09:19:49;;;;;;;5.43;1.80;;;;;;;5.07;31.65;94990.38;5068877;28;20023;-72
2021/04/09 09:22:20;;;;;;;7.13;2.53;;;;;;;5.11;33.03;94991.47;5058709;28;20092;-72
2021/04/09 09:25:05;;;;;;;7.80;2.53;;;;;;;5.18;32.22;94993.91;5071523;28;20551;-72
2021/04/09 09:27:48;;;;;;;9.10;2.92;;;;;;;5.24;32.29;94984.97;5069835;28;20484;-72
2021/04/09 09:30:37;;;;;;;6.20;2.03;;;;;;;5.50;32.83;94985.19;5056357;28;20044;-72
2021/04/09 09:33:22;;;;;;;3.72;2.00;;;;;;;5.70;31.33;94993.25;5091405;28;20028;-71
2021/04/09 09:36:06;;;;;;;4.53;1.67;;;;;;;5.72;31.62;94977.94;5062925;28;20048;-72
2021/04/09 09:38:53;;;;;;;6.00;2.20;;;;;;;5.86;31.76;94969.53;5089639;28;20028;-72
2021/04/09 09:41:37;;;;;;;4.35;1.48;;;;;;;5.95;30.53;94968.84;5071406;28;20059;-72
2021/04/09 09:44:31;;;;;;;10.10;2.80;;;;;;;6.06;31.74;94961.72;5051761;28;20023;-72
2021/04/09 09:47:18;;;;;;;4.03;1.85;;;;;;;6.40;31.24;94958.72;5071354;28;20039;-72
2021/04/09 09:50:22;;;;;;;3.45;1.30;;;;;;;6.63;28.93;94968.88;5089472;28;20102;-72
2021/04/09 09:52:55;;;;;;;5.53;2.20;;;;;;;6.71;29.78;94966.75;5048176;28;20120;-72
2021/04/09 09:55:36;;;;;;;3.15;1.65;;;;;;;6.72;29.55;94977.09;5062692;28;20024;-72
2021/04/09 09:58:04;;;;;;;3.28;1.88;;;;;;;6.54;28.57;94965.13;5071070;28;20035;-71
2021/04/09 10:00:29;;;;;;;3.13;1.77;;;;;;;6.47;29.10;94953.16;5065373;28;20028;-72
2021/04/09 10:03:33;;;;;;;3.90;1.92;;;;;;;6.56;29.56;94965.66;5071109;28;20028;-72
2021/04/09 10:06:00;;;;;;;2.65;1.30;;;;;;;6.35;28.64;94953.38;5059086;28;20051;-72
2021/04/09 10:08:26;;;;;;;4.40;2.28;;;;;;;6.28;29.19;94958.94;5065514;28;20051;-71
2021/04/09 10:11:01;;;;;;;6.35;2.03;;;;;;;6.24;29.58;94955.19;5062326;28;20032;-72
2021/04/09 10:13:59;;;;;;;9.23;2.25;;;;;;;6.09;29.67;94953.28;5066448;28;20114;-72
2021/04/09 10:16:25;;;;;;;3.55;1.90;;;;;;;6.10;29.11;94952.22;5099231;28;20086;-75
2021/04/09 10:18:56;;;;;;;3.75;1.58;;;;;;;6.18;28.61;94949.09;5056825;28;20032;-72
2021/04/09 10:21:33;;;;;;;5.45;2.20;;;;;;;6.32;29.94;94945.97;5048811;28;20024;-73
2021/04/09 10:24:09;;;;;;;2.83;1.60;;;;;;;6.53;27.97;94947.63;5087835;28;20411;-72
2021/04/09 10:26:36;;;;;;;3.92;1.75;;;;;;;6.73;27.78;94941.59;5070286;28;20399;-73
2021/04/09 10:29:16;;;;;;;4.32;2.17;;;;;;;6.92;27.63;94947.22;5073903;28;20032;-72
2021/04/09 10:31:41;;;;;;;3.75;1.80;;;;;;;6.89;26.93;94946.94;5060915;28;20029;-72
2021/04/09 10:34:07;;;;;;;4.55;1.95;;;;;;;6.79;26.60;94945.03;5092756;28;20028;-72
2021/04/09 10:36:32;;;;;;;5.35;2.05;;;;;;;6.65;27.45;94933.34;5093157;28;20479;-72
2021/04/09 10:39:01;;;;;;;4.72;1.77;;;;;;;6.55;27.70;94937.56;5068758;28;20116;-72
2021/04/09 10:41:52;;;;;;;5.43;2.28;;;;;;;6.56;28.35;94931.22;5057703;28;20193;-73
2021/04/09 10:44:24;;;;;;;7.57;2.47;;;;;;;6.68;28.59;94944.25;5062181;28;20085;-72
2021/04/09 10:46:51;;;;;;;3.70;1.65;;;;;;;6.84;27.02;94931.81;5074499;28;20028;-72
2021/04/09 10:49:21;;;;;;;3.40;1.33;;;;;;;7.05;28.08;94922.03;5073363;28;20040;-72
2021/04/09 10:51:51;;;;;;;3.95;2.05;;;;;;;7.37;26.37;94928.94;5092783;28;20031;-72
2021/04/09 10:54:24;;;;;;;6.40;2.50;;;;;;;7.62;26.72;94922.78;5092346;28;20020;-71
2021/04/09 10:56:52;;;;;;;5.75;2.47;;;;;;;7.63;26.51;94919.88;5058982;28;20514;-70
2021/04/09 10:59:43;;;;;;;4.88;1.80;;;;;;;7.40;26.74;94913.25;5092282;28;20031;-69
2021/04/09 11:02:23;;;;;;;4.70;1.83;;;;;;;7.63;26.45;94911.91;5049290;28;20094;-69
2021/04/09 11:04:51;;;;;;;5.32;1.73;;;;;;;7.82;26.50;94908.69;5069478;28;20029;-69
2021/04/09 11:07:16;;;;;;;4.45;1.92;;;;;;;7.95;26.01;94902.81;5056905;28;20468;-68
2021/04/09 11:09:50;;;;;;;7.63;1.70;;;;;;;8.10;25.50;94903.81;5092052;28;20027;-68
2021/04/09 11:12:24;;;;;;;3.13;1.85;;;;;;;8.06;25.43;94906.25;5073663;28;20023;-67
2021/04/09 11:15:08;;;;;;;3.22;1.85;;;;;;;8.23;25.05;94912.00;5073522;28;20127;-68
2021/04/09 11:17:34;;;;;;;4.03;1.98;;;;;;;8.27;24.32;94896.31;5091326;28;20024;-71
2021/04/09 11:20:04;;;;;;;8.18;1.60;;;;;;;8.27;25.12;94900.84;5091603;28;20077;-71
2021/04/09 11:23:05;;;;;;;10.57;2.03;;;;;;;8.16;24.86;94892.91;5073487;28;20036;-70
2021/04/09 11:25:31;;;;;;;6.10;1.98;;;;;;;8.01;25.31;94899.06;5070411;28;20513;-71
2021/04/09 11:27:57;;;;;;;5.97;2.00;;;;;;;8.00;24.37;94886.09;5091386;28;20055;-71
2021/04/09 11:30:22;;;;;;;4.72;2.13;;;;;;;8.00;24.67;94886.88;5063208;28;20032;-72
2021/04/09 11:32:48;;;;;;;3.88;1.90;;;;;;;8.22;25.77;94891.84;5089943;28;20483;-72
2021/04/09 11:35:14;;;;;;;4.30;1.70;;;;;;;8.51;25.99;94893.03;5060540;28;20025;-71
2021/04/09 11:37:54;;;;;;;4.80;1.83;;;;;;;8.77;25.12;94883.03;5090619;28;20479;-71
2021/04/09 11:40:38;;;;;;;6.03;1.98;;;;;;;8.91;24.03;94892.00;5091008;28;20105;-71
2021/04/09 11:43:09;;;;;;;2.70;1.60;;;;;;;9.09;24.26;94887.09;5071992;28;20480;-71
2021/04/09 11:45:42;;;;;;;3.80;1.48;;;;;;;9.33;23.75;94881.84;5064208;28;20025;-72
2021/04/09 11:48:31;;;;;;;3.70;1.50;;;;;;;9.55;21.29;94876.84;5071686;28;20120;-71
2021/04/09 11:51:29;;;;;;;9.23;1.95;;;;;;;9.67;20.80;94875.66;5096864;28;20491;-72
2021/04/09 11:54:06;;;;;;;7.10;2.45;;;;;;;9.70;22.19;94878.53;5062476;28;20085;-71